Ebenezer, Pennsylvania
Current Conditions -  °F | °C
As of 6:58 AM on Monday 24 Nov 2014 (Local Time) from KMUI Reporting Station
Overcast Overcast  
Wind Chill: 15°   Ceiling: 1300
Heat Index: 15°   Visibility: 10mi
Dew Point: 15°   Wind: 2mph
Humidity: 95%   Direction: 260°W
Pressure: 29.62"   Gusts: NA
Location:  40.2957°N, 76.4189°W
Report Text: KMUI 241158Z AUTO 26002KT 10SM OVC013 15/15 A2962 RMK AO2 SLP034 60042 70068 T01540146 10158 20081 55003 $
Loading
Personal Weather Stations






























Interactive Weather Map New forecast layout! Learn more

10-Day Weather Forecast

Advertisements
Track Severe Weather on mobile